createdAt,value
2018-10-09T00:05:20.666Z,101539.00
2018-10-09T00:11:25.518Z,101522.00
2018-10-09T00:17:30.595Z,101512.00
2018-10-09T00:23:34.487Z,101514.00
2018-10-09T00:29:38.749Z,101502.00
2018-10-09T00:35:43.430Z,101506.00
2018-10-09T00:41:47.122Z,101512.00
2018-10-09T00:47:50.569Z,101514.00
2018-10-09T00:53:54.099Z,101507.00
2018-10-09T00:59:58.416Z,101506.00
2018-10-09T01:06:01.867Z,101498.00
2018-10-09T01:12:06.286Z,101511.00
2018-10-09T01:18:10.238Z,101512.00
2018-10-09T01:24:13.623Z,101506.00
2018-10-09T01:30:17.489Z,101516.00
2018-10-09T01:36:20.841Z,101519.00
2018-10-09T01:42:24.521Z,101522.00
2018-10-09T01:48:27.957Z,101528.00
2018-10-09T01:54:31.339Z,101556.00
2018-10-09T02:00:35.670Z,101537.00
2018-10-09T02:06:39.329Z,101529.00
2018-10-09T02:12:42.962Z,101532.00
2018-10-09T02:18:46.706Z,101521.00
2018-10-09T02:24:50.226Z,101503.00
2018-10-09T02:30:53.968Z,101510.00
2018-10-09T02:36:57.330Z,101494.00
2018-10-09T02:43:00.889Z,101487.00
2018-10-09T02:49:04.393Z,101488.00
2018-10-09T02:55:07.862Z,101481.00
2018-10-09T03:01:11.354Z,101472.00
2018-10-09T03:07:15.117Z,101466.00
2018-10-09T03:13:18.682Z,101452.00
2018-10-09T03:19:22.138Z,101454.00
2018-10-09T03:25:25.478Z,101449.00
2018-10-09T03:31:29.280Z,101449.00
2018-10-09T03:37:32.702Z,101454.00
2018-10-09T03:43:36.238Z,101454.00
2018-10-09T03:49:39.738Z,101454.00
2018-10-09T03:55:43.271Z,101452.00
2018-10-09T04:01:46.662Z,101453.00
2018-10-09T04:07:50.553Z,101446.00
2018-10-09T04:13:54.131Z,101460.00
2018-10-09T04:19:57.794Z,101452.00
2018-10-09T04:26:01.508Z,101455.00
2018-10-09T04:32:05.249Z,101463.00
2018-10-09T04:38:08.873Z,101458.00
2018-10-09T04:44:12.292Z,101464.00
2018-10-09T04:50:16.022Z,101457.00
2018-10-09T04:56:20.343Z,101447.00
2018-10-09T05:02:23.957Z,101458.00
2018-10-09T05:08:27.521Z,101468.00
2018-10-09T05:14:31.057Z,101463.00
2018-10-09T05:20:35.775Z,101465.00
2018-10-09T05:26:40.162Z,101467.00
2018-10-09T05:32:43.765Z,101464.00
2018-10-09T05:38:47.482Z,101475.00
2018-10-09T05:44:51.446Z,101486.00
2018-10-09T05:50:56.268Z,101498.00
2018-10-09T05:56:59.722Z,101511.00
2018-10-09T06:03:03.232Z,101509.00
2018-10-09T06:09:08.870Z,101516.00
2018-10-09T06:15:12.526Z,101521.00
2018-10-09T06:21:16.467Z,101538.00
2018-10-09T06:27:20.302Z,101529.00
2018-10-09T06:33:23.915Z,101527.00
2018-10-09T06:39:28.939Z,101523.00
2018-10-09T06:45:32.838Z,101519.00
2018-10-09T06:51:36.569Z,101516.00
2018-10-09T06:57:40.397Z,101518.00
2018-10-09T07:03:43.846Z,101525.00
2018-10-09T07:09:47.274Z,101529.00
2018-10-09T07:15:50.946Z,101548.00
2018-10-09T07:21:55.364Z,101554.00
2018-10-09T07:27:59.258Z,101564.00
2018-10-09T07:34:03.418Z,101567.00
2018-10-09T07:40:09.870Z,101569.00
2018-10-09T07:46:14.046Z,101577.00
2018-10-09T07:52:17.785Z,101580.00
2018-10-09T07:58:22.138Z,101574.00
2018-10-09T08:04:27.409Z,101590.00
2018-10-09T08:10:31.894Z,101603.00
2018-10-09T08:16:37.044Z,101613.00
2018-10-09T08:22:41.318Z,101604.00
2018-10-09T08:28:45.160Z,101596.00
2018-10-09T08:34:49.531Z,101599.00
2018-10-09T08:40:53.184Z,101602.00
2018-10-09T08:46:57.298Z,101600.00
2018-10-09T08:53:01.014Z,101590.00
2018-10-09T08:59:05.603Z,101594.00
2018-10-09T09:05:09.337Z,101589.00
2018-10-09T09:11:13.062Z,101590.00
2018-10-09T09:17:16.610Z,101604.00
2018-10-09T09:23:20.310Z,101600.00
2018-10-09T09:29:23.811Z,101597.00
2018-10-09T09:35:27.313Z,101618.00
2018-10-09T09:41:30.874Z,101604.00
2018-10-09T09:47:35.873Z,101603.00
2018-10-09T09:53:39.421Z,101590.00
2018-10-09T09:59:44.050Z,101582.00
2018-10-09T10:05:47.537Z,101586.00
2018-10-09T10:11:50.968Z,101593.00
2018-10-09T10:17:55.409Z,101585.00
2018-10-09T10:23:59.512Z,101592.00
2018-10-09T10:30:03.198Z,101585.00
2018-10-09T10:36:06.967Z,101582.00
2018-10-09T10:42:11.383Z,101585.00
2018-10-09T10:48:15.156Z,101581.00
2018-10-09T10:54:18.821Z,101592.00
2018-10-09T11:00:22.342Z,101576.00
2018-10-09T11:06:26.023Z,101563.00
2018-10-09T11:12:29.580Z,101565.00
2018-10-09T11:18:33.517Z,101556.00
2018-10-09T11:24:37.314Z,101557.00
2018-10-09T11:30:41.022Z,101551.00
2018-10-09T11:36:45.333Z,101539.00
2018-10-09T11:42:50.207Z,101536.00
2018-10-09T11:48:53.811Z,101539.00
2018-10-09T11:54:57.842Z,101527.00
2018-10-09T12:01:05.414Z,101510.00
2018-10-09T12:07:09.198Z,101504.00
2018-10-09T12:13:12.930Z,101499.00
2018-10-09T12:19:16.947Z,101489.00
2018-10-09T12:25:20.874Z,101494.00
2018-10-09T12:31:24.471Z,101488.00
2018-10-09T12:37:27.975Z,101482.00
2018-10-09T12:43:33.611Z,101468.00
2018-10-09T12:49:38.513Z,101478.00
2018-10-09T12:55:42.125Z,101468.00
2018-10-09T13:01:46.077Z,101468.00
2018-10-09T13:07:49.777Z,101479.00
2018-10-09T13:13:54.113Z,101461.00
2018-10-09T13:19:57.761Z,101463.00
2018-10-09T13:26:01.885Z,101454.00
2018-10-09T13:32:05.653Z,101450.00
2018-10-09T13:38:09.776Z,101446.00
2018-10-09T13:44:14.447Z,101442.00
2018-10-09T13:50:18.267Z,101450.00
2018-10-09T13:56:21.939Z,101450.00
2018-10-09T14:02:25.641Z,101448.00
2018-10-09T14:08:29.981Z,101441.00
2018-10-09T14:14:34.208Z,101448.00
2018-10-09T14:20:37.892Z,101443.00
2018-10-09T14:26:41.411Z,101400.00
2018-10-09T14:32:45.744Z,101441.00
2018-10-09T14:38:49.607Z,101428.00
2018-10-09T14:44:53.244Z,101425.00
2018-10-09T14:50:57.036Z,101420.00
2018-10-09T14:57:04.043Z,101431.00
2018-10-09T15:03:14.865Z,101437.00
2018-10-09T15:09:19.946Z,101432.00
2018-10-09T15:15:24.730Z,101438.00
2018-10-09T15:21:28.798Z,101443.00
2018-10-09T15:27:32.851Z,101435.00
2018-10-09T15:33:37.515Z,101425.00
2018-10-09T15:39:42.009Z,101439.00
2018-10-09T15:45:46.674Z,101436.00
2018-10-09T15:51:51.679Z,101399.00
2018-10-09T15:57:55.543Z,101441.00
2018-10-09T16:03:59.232Z,101443.00
2018-10-09T16:10:05.094Z,101442.00
2018-10-09T16:16:11.071Z,101445.00
2018-10-09T16:22:16.328Z,101444.00
2018-10-09T16:28:24.357Z,101443.00
2018-10-09T16:34:29.527Z,101442.00
2018-10-09T16:40:35.061Z,101442.00
2018-10-09T16:46:41.274Z,101441.00
2018-10-09T16:52:46.336Z,101439.00
2018-10-09T16:58:51.232Z,101444.00
2018-10-09T17:04:56.207Z,101457.00
2018-10-09T17:11:02.717Z,101449.00
2018-10-09T17:17:08.151Z,101453.00
2018-10-09T17:23:14.197Z,101471.00
2018-10-09T17:29:19.178Z,101464.00
2018-10-09T17:35:24.900Z,101462.00
2018-10-09T17:41:31.809Z,101474.00
2018-10-09T17:47:36.987Z,101478.00
2018-10-09T17:53:41.827Z,101478.00
2018-10-09T17:59:45.589Z,101482.00
2018-10-09T18:05:51.383Z,101486.00
2018-10-09T18:11:56.957Z,101484.00
2018-10-09T18:18:03.051Z,101477.00
2018-10-09T18:24:08.397Z,101447.00
2018-10-09T18:30:13.494Z,101485.00
2018-10-09T18:36:17.983Z,101484.00
2018-10-09T18:42:22.581Z,101485.00
2018-10-09T18:48:27.101Z,101482.00
2018-10-09T18:54:31.844Z,101483.00
2018-10-09T19:00:36.416Z,101475.00
2018-10-09T19:06:40.764Z,101477.00
2018-10-09T19:12:45.414Z,101480.00
2018-10-09T19:18:51.190Z,101477.00
2018-10-09T19:24:55.886Z,101494.00
2018-10-09T19:31:00.986Z,101491.00
2018-10-09T19:37:05.529Z,101490.00
2018-10-09T19:43:10.683Z,101494.00
2018-10-09T19:49:15.752Z,101493.00
2018-10-09T19:55:20.948Z,101489.00
2018-10-09T20:01:26.397Z,101490.00
2018-10-09T20:07:32.459Z,101496.00
2018-10-09T20:13:37.613Z,101492.00
2018-10-09T20:19:42.032Z,101491.00
2018-10-09T20:25:45.777Z,101489.00
2018-10-09T20:31:49.582Z,101488.00
2018-10-09T20:37:53.315Z,101491.00
2018-10-09T20:43:57.206Z,101484.00
2018-10-09T20:50:02.549Z,101492.00
2018-10-09T20:56:06.944Z,101490.00
2018-10-09T21:02:13.719Z,101502.00
2018-10-09T21:08:18.066Z,101494.00
2018-10-09T21:14:22.699Z,101497.00
2018-10-09T21:20:27.032Z,101494.00
2018-10-09T21:26:33.123Z,101489.00
2018-10-09T21:32:38.323Z,101493.00
2018-10-09T21:38:42.575Z,101484.00
2018-10-09T21:44:47.591Z,101483.00
2018-10-09T21:50:51.204Z,101477.00
2018-10-09T21:56:55.381Z,101478.00
2018-10-09T22:02:59.211Z,101475.00
2018-10-09T22:09:04.169Z,101471.00
2018-10-09T22:15:08.139Z,101473.00
2018-10-09T22:21:12.142Z,101473.00
2018-10-09T22:27:15.545Z,101466.00
2018-10-09T22:33:19.054Z,101469.00
2018-10-09T22:39:22.787Z,101460.00
2018-10-09T22:45:26.500Z,101457.00
2018-10-09T22:51:30.456Z,101455.00
2018-10-09T22:57:34.057Z,101452.00
2018-10-09T23:03:37.625Z,101458.00
2018-10-09T23:09:41.655Z,101463.00
2018-10-09T23:15:45.212Z,101462.00
2018-10-09T23:21:49.027Z,101462.00
2018-10-09T23:27:52.639Z,101461.00
2018-10-09T23:33:56.338Z,101457.00
2018-10-09T23:39:59.925Z,101460.00
2018-10-09T23:46:03.618Z,101444.00
2018-10-09T23:52:07.130Z,101447.00
2018-10-09T23:58:10.524Z,101444.00
